sensor_id;sensor_type;location;lat;lon;timestamp;P1;durP1;ratioP1;P2;durP2;ratioP2
18338;SDS011;9295;44.484;11.240;2023-04-03T00:00:07;7.83;;;4.50;;
18338;SDS011;9295;44.484;11.240;2023-04-03T00:02:36;5.20;;;3.80;;
18338;SDS011;9295;44.484;11.240;2023-04-03T00:05:05;5.17;;;3.90;;
18338;SDS011;9295;44.484;11.240;2023-04-03T00:07:35;6.57;;;4.37;;
18338;SDS011;9295;44.484;11.240;2023-04-03T00:10:04;6.77;;;4.10;;
18338;SDS011;9295;44.484;11.240;2023-04-03T00:12:33;7.63;;;3.90;;
18338;SDS011;9295;44.484;11.240;2023-04-03T00:15:01;5.00;;;3.90;;
18338;SDS011;9295;44.484;11.240;2023-04-03T00:17:30;5.10;;;4.03;;
18338;SDS011;9295;44.484;11.240;2023-04-03T00:19:58;5.90;;;3.40;;
18338;SDS011;9295;44.484;11.240;2023-04-03T00:22:27;6.93;;;3.60;;
18338;SDS011;9295;44.484;11.240;2023-04-03T00:24:57;6.03;;;4.03;;
18338;SDS011;9295;44.484;11.240;2023-04-03T00:27:25;7.80;;;4.40;;
18338;SDS011;9295;44.484;11.240;2023-04-03T00:29:54;5.03;;;4.30;;
18338;SDS011;9295;44.484;11.240;2023-04-03T00:32:22;5.13;;;3.47;;
18338;SDS011;9295;44.484;11.240;2023-04-03T00:34:50;8.50;;;4.00;;
18338;SDS011;9295;44.484;11.240;2023-04-03T00:37:19;4.97;;;3.87;;
18338;SDS011;9295;44.484;11.240;2023-04-03T00:39:47;8.17;;;4.63;;
18338;SDS011;9295;44.484;11.240;2023-04-03T00:42:17;7.20;;;4.00;;
18338;SDS011;9295;44.484;11.240;2023-04-03T00:48:07;7.73;;;4.40;;
18338;SDS011;9295;44.484;11.240;2023-04-03T00:50:39;4.00;;;3.53;;
18338;SDS011;9295;44.484;11.240;2023-04-03T00:53:10;6.57;;;4.23;;
18338;SDS011;9295;44.484;11.240;2023-04-03T00:55:42;7.60;;;5.40;;
18338;SDS011;9295;44.484;11.240;2023-04-03T00:58:13;5.37;;;3.80;;
18338;SDS011;9295;44.484;11.240;2023-04-03T01:00:46;7.47;;;4.23;;
18338;SDS011;9295;44.484;11.240;2023-04-03T01:03:23;6.37;;;3.77;;
18338;SDS011;9295;44.484;11.240;2023-04-03T01:05:53;10.23;;;5.03;;
18338;SDS011;9295;44.484;11.240;2023-04-03T01:08:21;6.03;;;4.50;;
18338;SDS011;9295;44.484;11.240;2023-04-03T01:10:49;6.00;;;4.10;;
18338;SDS011;9295;44.484;11.240;2023-04-03T01:13:23;6.90;;;4.00;;
18338;SDS011;9295;44.484;11.240;2023-04-03T01:15:53;7.53;;;4.17;;
18338;SDS011;9295;44.484;11.240;2023-04-03T01:18:22;4.80;;;3.80;;
18338;SDS011;9295;44.484;11.240;2023-04-03T01:23:57;5.40;;;4.30;;
18338;SDS011;9295;44.484;11.240;2023-04-03T01:26:37;5.73;;;3.90;;
18338;SDS011;9295;44.484;11.240;2023-04-03T01:29:06;6.27;;;4.30;;
18338;SDS011;9295;44.484;11.240;2023-04-03T01:31:45;5.37;;;4.20;;
18338;SDS011;9295;44.484;11.240;2023-04-03T01:34:16;8.10;;;4.50;;
18338;SDS011;9295;44.484;11.240;2023-04-03T01:36:44;5.70;;;4.43;;
18338;SDS011;9295;44.484;11.240;2023-04-03T01:39:13;5.83;;;4.00;;
18338;SDS011;9295;44.484;11.240;2023-04-03T01:41:41;6.70;;;4.07;;
18338;SDS011;9295;44.484;11.240;2023-04-03T01:44:16;5.30;;;3.77;;
18338;SDS011;9295;44.484;11.240;2023-04-03T01:46:45;6.57;;;3.83;;
18338;SDS011;9295;44.484;11.240;2023-04-03T01:49:14;4.50;;;3.63;;
18338;SDS011;9295;44.484;11.240;2023-04-03T01:51:42;4.60;;;3.40;;
18338;SDS011;9295;44.484;11.240;2023-04-03T01:54:11;4.67;;;3.77;;
18338;SDS011;9295;44.484;11.240;2023-04-03T01:56:39;6.43;;;3.50;;
18338;SDS011;9295;44.484;11.240;2023-04-03T01:59:08;4.70;;;3.70;;
18338;SDS011;9295;44.484;11.240;2023-04-03T02:01:36;5.13;;;3.60;;
18338;SDS011;9295;44.484;11.240;2023-04-03T02:04:06;5.27;;;3.97;;
18338;SDS011;9295;44.484;11.240;2023-04-03T02:06:35;4.73;;;3.73;;
18338;SDS011;9295;44.484;11.240;2023-04-03T02:09:03;5.83;;;3.60;;
18338;SDS011;9295;44.484;11.240;2023-04-03T02:11:32;9.13;;;4.00;;
18338;SDS011;9295;44.484;11.240;2023-04-03T02:14:00;6.90;;;3.90;;
18338;SDS011;9295;44.484;11.240;2023-04-03T02:16:29;6.57;;;4.03;;
18338;SDS011;9295;44.484;11.240;2023-04-03T02:18:57;5.30;;;3.93;;
18338;SDS011;9295;44.484;11.240;2023-04-03T02:21:27;6.77;;;3.93;;
18338;SDS011;9295;44.484;11.240;2023-04-03T02:23:56;7.83;;;3.47;;
18338;SDS011;9295;44.484;11.240;2023-04-03T02:26:24;8.33;;;3.87;;
18338;SDS011;9295;44.484;11.240;2023-04-03T02:28:53;4.90;;;3.50;;
18338;SDS011;9295;44.484;11.240;2023-04-03T02:31:21;6.37;;;3.73;;
18338;SDS011;9295;44.484;11.240;2023-04-03T02:33:51;7.13;;;3.83;;
18338;SDS011;9295;44.484;11.240;2023-04-03T02:36:19;6.23;;;2.90;;
18338;SDS011;9295;44.484;11.240;2023-04-03T02:38:54;6.10;;;3.47;;
18338;SDS011;9295;44.484;11.240;2023-04-03T02:41:22;4.20;;;3.50;;
18338;SDS011;9295;44.484;11.240;2023-04-03T02:43:53;5.57;;;3.57;;
18338;SDS011;9295;44.484;11.240;2023-04-03T02:46:21;4.10;;;3.57;;
18338;SDS011;9295;44.484;11.240;2023-04-03T02:48:50;5.73;;;3.37;;
18338;SDS011;9295;44.484;11.240;2023-04-03T02:51:19;5.70;;;3.30;;
18338;SDS011;9295;44.484;11.240;2023-04-03T02:53:47;4.27;;;3.40;;
18338;SDS011;9295;44.484;11.240;2023-04-03T02:56:21;4.80;;;3.37;;
18338;SDS011;9295;44.484;11.240;2023-04-03T02:58:49;5.17;;;3.10;;
18338;SDS011;9295;44.484;11.240;2023-04-03T03:01:18;5.50;;;3.20;;
18338;SDS011;9295;44.484;11.240;2023-04-03T03:03:47;5.20;;;3.60;;
18338;SDS011;9295;44.484;11.240;2023-04-03T03:06:16;6.00;;;3.63;;
18338;SDS011;9295;44.484;11.240;2023-04-03T03:08:45;5.37;;;3.40;;
18338;SDS011;9295;44.484;11.240;2023-04-03T03:11:13;5.90;;;4.00;;
18338;SDS011;9295;44.484;11.240;2023-04-03T03:13:43;7.70;;;3.70;;
18338;SDS011;9295;44.484;11.240;2023-04-03T03:16:12;7.07;;;3.60;;
18338;SDS011;9295;44.484;11.240;2023-04-03T03:18:40;9.83;;;3.37;;
18338;SDS011;9295;44.484;11.240;2023-04-03T03:21:09;4.50;;;2.97;;
18338;SDS011;9295;44.484;11.240;2023-04-03T03:23:38;7.30;;;3.67;;
18338;SDS011;9295;44.484;11.240;2023-04-03T03:26:07;7.07;;;4.33;;
18338;SDS011;9295;44.484;11.240;2023-04-03T03:28:37;6.57;;;4.27;;
18338;SDS011;9295;44.484;11.240;2023-04-03T03:31:08;5.30;;;3.87;;
18338;SDS011;9295;44.484;11.240;2023-04-03T03:33:39;7.13;;;4.17;;
18338;SDS011;9295;44.484;11.240;2023-04-03T03:36:07;10.57;;;3.90;;
18338;SDS011;9295;44.484;11.240;2023-04-03T03:38:36;5.17;;;3.60;;
18338;SDS011;9295;44.484;11.240;2023-04-03T03:41:05;5.23;;;4.27;;
18338;SDS011;9295;44.484;11.240;2023-04-03T03:43:34;5.40;;;4.37;;
18338;SDS011;9295;44.484;11.240;2023-04-03T03:46:04;4.53;;;3.70;;
18338;SDS011;9295;44.484;11.240;2023-04-03T03:48:34;8.70;;;3.60;;
18338;SDS011;9295;44.484;11.240;2023-04-03T03:51:03;4.37;;;3.40;;
18338;SDS011;9295;44.484;11.240;2023-04-03T03:53:35;7.10;;;4.20;;
18338;SDS011;9295;44.484;11.240;2023-04-03T03:56:06;5.47;;;4.07;;
18338;SDS011;9295;44.484;11.240;2023-04-03T03:58:37;7.27;;;4.47;;
18338;SDS011;9295;44.484;11.240;2023-04-03T04:01:06;4.73;;;3.70;;
18338;SDS011;9295;44.484;11.240;2023-04-03T04:03:42;5.13;;;3.40;;
18338;SDS011;9295;44.484;11.240;2023-04-03T04:06:14;9.60;;;3.60;;
18338;SDS011;9295;44.484;11.240;2023-04-03T04:08:43;8.37;;;3.67;;
18338;SDS011;9295;44.484;11.240;2023-04-03T04:11:13;4.50;;;3.77;;
18338;SDS011;9295;44.484;11.240;2023-04-03T04:13:43;6.87;;;3.73;;
18338;SDS011;9295;44.484;11.240;2023-04-03T04:16:13;5.13;;;3.53;;
18338;SDS011;9295;44.484;11.240;2023-04-03T04:18:43;8.03;;;3.43;;
18338;SDS011;9295;44.484;11.240;2023-04-03T04:21:12;4.53;;;3.33;;
18338;SDS011;9295;44.484;11.240;2023-04-03T04:23:41;5.50;;;3.77;;
18338;SDS011;9295;44.484;11.240;2023-04-03T04:26:09;4.93;;;3.37;;
18338;SDS011;9295;44.484;11.240;2023-04-03T04:28:39;8.90;;;4.00;;
18338;SDS011;9295;44.484;11.240;2023-04-03T04:31:08;6.77;;;3.90;;
18338;SDS011;9295;44.484;11.240;2023-04-03T04:33:36;6.27;;;3.50;;
18338;SDS011;9295;44.484;11.240;2023-04-03T04:36:10;5.60;;;4.10;;
18338;SDS011;9295;44.484;11.240;2023-04-03T04:38:38;7.53;;;3.63;;
18338;SDS011;9295;44.484;11.240;2023-04-03T04:41:07;6.20;;;4.10;;
18338;SDS011;9295;44.484;11.240;2023-04-03T04:43:36;6.03;;;4.30;;
18338;SDS011;9295;44.484;11.240;2023-04-03T04:46:05;6.97;;;3.93;;
18338;SDS011;9295;44.484;11.240;2023-04-03T04:48:42;6.20;;;4.57;;
18338;SDS011;9295;44.484;11.240;2023-04-03T04:51:13;5.27;;;4.00;;
18338;SDS011;9295;44.484;11.240;2023-04-03T04:53:42;7.27;;;4.10;;
18338;SDS011;9295;44.484;11.240;2023-04-03T04:56:13;7.40;;;4.07;;
18338;SDS011;9295;44.484;11.240;2023-04-03T04:58:42;5.73;;;4.30;;
18338;SDS011;9295;44.484;11.240;2023-04-03T05:01:11;5.13;;;4.13;;
18338;SDS011;9295;44.484;11.240;2023-04-03T05:03:48;5.80;;;4.30;;
18338;SDS011;9295;44.484;11.240;2023-04-03T05:06:19;9.70;;;4.00;;
18338;SDS011;9295;44.484;11.240;2023-04-03T05:08:47;5.53;;;4.20;;
18338;SDS011;9295;44.484;11.240;2023-04-03T05:11:17;7.07;;;4.20;;
18338;SDS011;9295;44.484;11.240;2023-04-03T05:13:48;5.97;;;4.17;;
18338;SDS011;9295;44.484;11.240;2023-04-03T05:16:17;7.80;;;4.20;;
18338;SDS011;9295;44.484;11.240;2023-04-03T05:18:46;11.10;;;4.63;;
18338;SDS011;9295;44.484;11.240;2023-04-03T05:21:19;11.00;;;4.20;;
18338;SDS011;9295;44.484;11.240;2023-04-03T05:23:51;6.47;;;4.07;;
18338;SDS011;9295;44.484;11.240;2023-04-03T05:26:20;4.90;;;3.93;;
18338;SDS011;9295;44.484;11.240;2023-04-03T05:28:49;6.13;;;4.73;;
18338;SDS011;9295;44.484;11.240;2023-04-03T05:31:19;5.23;;;4.10;;
18338;SDS011;9295;44.484;11.240;2023-04-03T05:33:48;10.87;;;4.80;;
18338;SDS011;9295;44.484;11.240;2023-04-03T05:36:17;8.90;;;5.17;;
18338;SDS011;9295;44.484;11.240;2023-04-03T05:38:52;7.47;;;4.50;;
18338;SDS011;9295;44.484;11.240;2023-04-03T05:41:24;8.30;;;4.67;;
18338;SDS011;9295;44.484;11.240;2023-04-03T05:43:52;15.37;;;5.10;;
18338;SDS011;9295;44.484;11.240;2023-04-03T05:46:23;13.00;;;4.73;;
18338;SDS011;9295;44.484;11.240;2023-04-03T05:48:55;9.53;;;4.83;;
18338;SDS011;9295;44.484;11.240;2023-04-03T05:51:30;11.13;;;5.00;;
18338;SDS011;9295;44.484;11.240;2023-04-03T05:54:09;6.43;;;4.33;;
18338;SDS011;9295;44.484;11.240;2023-04-03T05:56:41;7.13;;;4.47;;
18338;SDS011;9295;44.484;11.240;2023-04-03T05:59:10;6.13;;;4.77;;
18338;SDS011;9295;44.484;11.240;2023-04-03T06:01:39;14.23;;;4.53;;
18338;SDS011;9295;44.484;11.240;2023-04-03T06:04:07;7.87;;;4.07;;
18338;SDS011;9295;44.484;11.240;2023-04-03T06:06:45;6.47;;;4.10;;
18338;SDS011;9295;44.484;11.240;2023-04-03T06:09:15;5.57;;;4.10;;
18338;SDS011;9295;44.484;11.240;2023-04-03T06:11:43;5.90;;;3.50;;
18338;SDS011;9295;44.484;11.240;2023-04-03T06:14:12;5.27;;;3.50;;
18338;SDS011;9295;44.484;11.240;2023-04-03T06:16:41;4.83;;;3.70;;
18338;SDS011;9295;44.484;11.240;2023-04-03T06:19:10;7.60;;;4.20;;
18338;SDS011;9295;44.484;11.240;2023-04-03T06:21:46;7.10;;;3.80;;
18338;SDS011;9295;44.484;11.240;2023-04-03T06:24:15;7.33;;;3.80;;
18338;SDS011;9295;44.484;11.240;2023-04-03T06:26:44;10.30;;;3.87;;
18338;SDS011;9295;44.484;11.240;2023-04-03T06:29:13;6.20;;;3.87;;
18338;SDS011;9295;44.484;11.240;2023-04-03T06:31:41;5.93;;;3.87;;
18338;SDS011;9295;44.484;11.240;2023-04-03T06:34:09;12.83;;;5.00;;
18338;SDS011;9295;44.484;11.240;2023-04-03T06:36:39;27.80;;;4.70;;
18338;SDS011;9295;44.484;11.240;2023-04-03T06:39:09;15.47;;;5.03;;
18338;SDS011;9295;44.484;11.240;2023-04-03T06:41:41;8.33;;;4.03;;
18338;SDS011;9295;44.484;11.240;2023-04-03T06:44:10;10.07;;;3.80;;
18338;SDS011;9295;44.484;11.240;2023-04-03T06:46:40;6.03;;;3.07;;
18338;SDS011;9295;44.484;11.240;2023-04-03T06:49:08;11.37;;;3.30;;
18338;SDS011;9295;44.484;11.240;2023-04-03T06:51:36;8.03;;;3.03;;
18338;SDS011;9295;44.484;11.240;2023-04-03T06:54:05;15.03;;;3.33;;
18338;SDS011;9295;44.484;11.240;2023-04-03T06:56:36;7.73;;;3.93;;
18338;SDS011;9295;44.484;11.240;2023-04-03T06:59:05;9.13;;;3.77;;
18338;SDS011;9295;44.484;11.240;2023-04-03T07:01:33;9.47;;;5.03;;
18338;SDS011;9295;44.484;11.240;2023-04-03T07:04:01;20.90;;;5.30;;
18338;SDS011;9295;44.484;11.240;2023-04-03T07:06:30;13.17;;;5.30;;
18338;SDS011;9295;44.484;11.240;2023-04-03T07:09:00;8.47;;;4.70;;
18338;SDS011;9295;44.484;11.240;2023-04-03T07:11:29;11.73;;;6.23;;
18338;SDS011;9295;44.484;11.240;2023-04-03T07:13:59;10.17;;;5.60;;
18338;SDS011;9295;44.484;11.240;2023-04-03T07:16:27;13.73;;;6.13;;
18338;SDS011;9295;44.484;11.240;2023-04-03T07:18:57;15.40;;;7.17;;
18338;SDS011;9295;44.484;11.240;2023-04-03T07:21:25;13.33;;;6.57;;
18338;SDS011;9295;44.484;11.240;2023-04-03T07:23:54;14.93;;;7.23;;
18338;SDS011;9295;44.484;11.240;2023-04-03T07:26:23;18.10;;;6.13;;
18338;SDS011;9295;44.484;11.240;2023-04-03T07:28:52;25.40;;;7.90;;
18338;SDS011;9295;44.484;11.240;2023-04-03T07:31:21;10.97;;;6.90;;
18338;SDS011;9295;44.484;11.240;2023-04-03T07:33:50;9.10;;;6.60;;
18338;SDS011;9295;44.484;11.240;2023-04-03T07:36:19;8.27;;;6.00;;
18338;SDS011;9295;44.484;11.240;2023-04-03T07:38:49;11.67;;;6.53;;
18338;SDS011;9295;44.484;11.240;2023-04-03T07:41:18;9.30;;;6.67;;
18338;SDS011;9295;44.484;11.240;2023-04-03T07:43:49;9.33;;;6.27;;
18338;SDS011;9295;44.484;11.240;2023-04-03T07:46:18;38.37;;;8.47;;
18338;SDS011;9295;44.484;11.240;2023-04-03T07:48:48;10.53;;;5.97;;
18338;SDS011;9295;44.484;11.240;2023-04-03T07:51:17;7.53;;;6.07;;
18338;SDS011;9295;44.484;11.240;2023-04-03T07:53:46;14.60;;;7.50;;
18338;SDS011;9295;44.484;11.240;2023-04-03T07:56:16;14.93;;;6.87;;
18338;SDS011;9295;44.484;11.240;2023-04-03T07:58:44;9.60;;;7.00;;
18338;SDS011;9295;44.484;11.240;2023-04-03T08:01:13;8.77;;;7.10;;
18338;SDS011;9295;44.484;11.240;2023-04-03T08:03:41;12.33;;;7.20;;
18338;SDS011;9295;44.484;11.240;2023-04-03T08:06:11;11.70;;;7.50;;
18338;SDS011;9295;44.484;11.240;2023-04-03T08:08:44;10.50;;;7.90;;
18338;SDS011;9295;44.484;11.240;2023-04-03T08:11:12;12.10;;;7.70;;
18338;SDS011;9295;44.484;11.240;2023-04-03T08:13:41;19.10;;;8.10;;
18338;SDS011;9295;44.484;11.240;2023-04-03T08:16:10;12.60;;;7.17;;
18338;SDS011;9295;44.484;11.240;2023-04-03T08:18:40;13.13;;;7.97;;
18338;SDS011;9295;44.484;11.240;2023-04-03T08:21:09;10.83;;;7.93;;
18338;SDS011;9295;44.484;11.240;2023-04-03T08:23:39;10.93;;;7.90;;
18338;SDS011;9295;44.484;11.240;2023-04-03T08:26:09;10.13;;;7.77;;
18338;SDS011;9295;44.484;11.240;2023-04-03T08:28:39;24.50;;;9.20;;
18338;SDS011;9295;44.484;11.240;2023-04-03T08:31:08;14.10;;;8.80;;
18338;SDS011;9295;44.484;11.240;2023-04-03T08:33:38;12.50;;;8.47;;
18338;SDS011;9295;44.484;11.240;2023-04-03T08:36:14;12.60;;;8.50;;
18338;SDS011;9295;44.484;11.240;2023-04-03T08:38:47;15.40;;;9.27;;
18338;SDS011;9295;44.484;11.240;2023-04-03T08:41:19;13.33;;;8.97;;
18338;SDS011;9295;44.484;11.240;2023-04-03T08:44:02;11.07;;;7.57;;
18338;SDS011;9295;44.484;11.240;2023-04-03T08:46:44;14.53;;;8.63;;
18338;SDS011;9295;44.484;11.240;2023-04-03T08:49:22;18.17;;;9.30;;
18338;SDS011;9295;44.484;11.240;2023-04-03T08:51:55;21.53;;;8.70;;
18338;SDS011;9295;44.484;11.240;2023-04-03T08:54:29;14.57;;;8.43;;
18338;SDS011;9295;44.484;11.240;2023-04-03T08:57:02;22.97;;;8.37;;
18338;SDS011;9295;44.484;11.240;2023-04-03T08:59:33;17.10;;;7.33;;
18338;SDS011;9295;44.484;11.240;2023-04-03T09:02:04;22.53;;;6.57;;
18338;SDS011;9295;44.484;11.240;2023-04-03T09:04:50;14.40;;;6.67;;
18338;SDS011;9295;44.484;11.240;2023-04-03T09:07:20;24.77;;;7.90;;
18338;SDS011;9295;44.484;11.240;2023-04-03T09:09:54;15.80;;;7.60;;
18338;SDS011;9295;44.484;11.240;2023-04-03T09:12:27;12.27;;;6.70;;
18338;SDS011;9295;44.484;11.240;2023-04-03T09:15:02;10.53;;;6.80;;
18338;SDS011;9295;44.484;11.240;2023-04-03T09:17:41;9.27;;;5.80;;
18338;SDS011;9295;44.484;11.240;2023-04-03T09:20:16;11.90;;;5.43;;
18338;SDS011;9295;44.484;11.240;2023-04-03T09:22:50;12.63;;;6.30;;
18338;SDS011;9295;44.484;11.240;2023-04-03T09:25:21;9.27;;;5.13;;
18338;SDS011;9295;44.484;11.240;2023-04-03T09:27:51;12.40;;;4.83;;
18338;SDS011;9295;44.484;11.240;2023-04-03T09:30:21;15.23;;;5.20;;
18338;SDS011;9295;44.484;11.240;2023-04-03T09:32:51;13.73;;;6.03;;
18338;SDS011;9295;44.484;11.240;2023-04-03T09:35:21;11.30;;;5.63;;
18338;SDS011;9295;44.484;11.240;2023-04-03T09:38:17;17.07;;;6.30;;
18338;SDS011;9295;44.484;11.240;2023-04-03T09:40:50;11.60;;;5.93;;
18338;SDS011;9295;44.484;11.240;2023-04-03T09:43:30;13.40;;;5.90;;
18338;SDS011;9295;44.484;11.240;2023-04-03T09:46:17;12.63;;;5.47;;
18338;SDS011;9295;44.484;11.240;2023-04-03T09:48:52;9.90;;;5.73;;
18338;SDS011;9295;44.484;11.240;2023-04-03T09:51:34;7.80;;;4.60;;
18338;SDS011;9295;44.484;11.240;2023-04-03T09:54:23;9.20;;;4.73;;
18338;SDS011;9295;44.484;11.240;2023-04-03T09:56:55;8.33;;;4.77;;
18338;SDS011;9295;44.484;11.240;2023-04-03T09:59:27;10.03;;;4.63;;
18338;SDS011;9295;44.484;11.240;2023-04-03T10:01:57;7.10;;;4.30;;
18338;SDS011;9295;44.484;11.240;2023-04-03T10:04:37;11.63;;;4.90;;
18338;SDS011;9295;44.484;11.240;2023-04-03T10:09:58;10.87;;;5.60;;
18338;SDS011;9295;44.484;11.240;2023-04-03T10:12:31;7.03;;;4.90;;
18338;SDS011;9295;44.484;11.240;2023-04-03T10:14:59;11.50;;;5.73;;
18338;SDS011;9295;44.484;11.240;2023-04-03T10:17:48;14.83;;;6.77;;
18338;SDS011;9295;44.484;11.240;2023-04-03T10:20:26;18.00;;;6.73;;
18338;SDS011;9295;44.484;11.240;2023-04-03T10:23:01;10.67;;;6.80;;
18338;SDS011;9295;44.484;11.240;2023-04-03T10:25:43;11.33;;;7.37;;
18338;SDS011;9295;44.484;11.240;2023-04-03T10:28:23;12.20;;;5.97;;
18338;SDS011;9295;44.484;11.240;2023-04-03T10:30:56;8.57;;;6.27;;
18338;SDS011;9295;44.484;11.240;2023-04-03T10:33:36;12.03;;;6.10;;
18338;SDS011;9295;44.484;11.240;2023-04-03T10:36:17;15.23;;;5.10;;
18338;SDS011;9295;44.484;11.240;2023-04-03T10:38:57;12.10;;;5.33;;
18338;SDS011;9295;44.484;11.240;2023-04-03T10:41:33;14.17;;;5.63;;
18338;SDS011;9295;44.484;11.240;2023-04-03T10:44:12;8.80;;;4.33;;
18338;SDS011;9295;44.484;11.240;2023-04-03T10:46:48;10.33;;;3.87;;
18338;SDS011;9295;44.484;11.240;2023-04-03T10:49:25;6.53;;;4.00;;
18338;SDS011;9295;44.484;11.240;2023-04-03T10:52:11;9.30;;;3.57;;
18338;SDS011;9295;44.484;11.240;2023-04-03T10:54:46;9.53;;;2.90;;
18338;SDS011;9295;44.484;11.240;2023-04-03T10:57:22;7.00;;;3.10;;
18338;SDS011;9295;44.484;11.240;2023-04-03T10:59:55;6.90;;;3.13;;
18338;SDS011;9295;44.484;11.240;2023-04-03T11:02:26;7.23;;;3.33;;
18338;SDS011;9295;44.484;11.240;2023-04-03T11:04:59;4.00;;;2.70;;
18338;SDS011;9295;44.484;11.240;2023-04-03T11:07:32;7.83;;;3.10;;
18338;SDS011;9295;44.484;11.240;2023-04-03T11:10:09;7.23;;;3.33;;
18338;SDS011;9295;44.484;11.240;2023-04-03T11:12:42;8.03;;;3.00;;
18338;SDS011;9295;44.484;11.240;2023-04-03T11:15:15;9.43;;;3.30;;
18338;SDS011;9295;44.484;11.240;2023-04-03T11:17:46;9.83;;;3.40;;
18338;SDS011;9295;44.484;11.240;2023-04-03T11:20:20;8.10;;;3.13;;
18338;SDS011;9295;44.484;11.240;2023-04-03T11:22:57;15.27;;;3.30;;
18338;SDS011;9295;44.484;11.240;2023-04-03T11:25:30;7.60;;;2.70;;
18338;SDS011;9295;44.484;11.240;2023-04-03T11:28:02;6.10;;;3.00;;
18338;SDS011;9295;44.484;11.240;2023-04-03T11:30:37;6.27;;;2.50;;
18338;SDS011;9295;44.484;11.240;2023-04-03T11:36:10;7.33;;;2.97;;
18338;SDS011;9295;44.484;11.240;2023-04-03T11:38:56;7.13;;;2.50;;
18338;SDS011;9295;44.484;11.240;2023-04-03T11:41:27;4.70;;;2.57;;
18338;SDS011;9295;44.484;11.240;2023-04-03T11:43:59;3.70;;;2.23;;
18338;SDS011;9295;44.484;11.240;2023-04-03T11:46:49;6.90;;;2.43;;
18338;SDS011;9295;44.484;11.240;2023-04-03T11:58:25;5.47;;;2.50;;
18338;SDS011;9295;44.484;11.240;2023-04-03T12:00:56;7.13;;;2.93;;
18338;SDS011;9295;44.484;11.240;2023-04-03T12:09:56;4.83;;;2.50;;
18338;SDS011;9295;44.484;11.240;2023-04-03T12:12:31;6.70;;;2.83;;
18338;SDS011;9295;44.484;11.240;2023-04-03T12:15:12;9.87;;;2.53;;
18338;SDS011;9295;44.484;11.240;2023-04-03T12:17:48;14.97;;;2.80;;
18338;SDS011;9295;44.484;11.240;2023-04-03T12:23:27;5.93;;;2.43;;
18338;SDS011;9295;44.484;11.240;2023-04-03T12:26:19;5.80;;;2.27;;
18338;SDS011;9295;44.484;11.240;2023-04-03T12:28:50;7.73;;;2.47;;
18338;SDS011;9295;44.484;11.240;2023-04-03T12:31:20;6.17;;;2.10;;
18338;SDS011;9295;44.484;11.240;2023-04-03T12:34:01;5.70;;;2.17;;
18338;SDS011;9295;44.484;11.240;2023-04-03T12:36:46;5.47;;;2.90;;
18338;SDS011;9295;44.484;11.240;2023-04-03T12:45:39;4.70;;;2.57;;
18338;SDS011;9295;44.484;11.240;2023-04-03T12:48:13;8.23;;;2.13;;
18338;SDS011;9295;44.484;11.240;2023-04-03T12:50:43;4.23;;;2.17;;
18338;SDS011;9295;44.484;11.240;2023-04-03T12:53:15;5.00;;;2.00;;
18338;SDS011;9295;44.484;11.240;2023-04-03T12:55:47;8.67;;;2.13;;
18338;SDS011;9295;44.484;11.240;2023-04-03T12:58:20;5.30;;;2.30;;
18338;SDS011;9295;44.484;11.240;2023-04-03T13:01:00;7.20;;;1.93;;
18338;SDS011;9295;44.484;11.240;2023-04-03T13:03:30;4.63;;;2.40;;
18338;SDS011;9295;44.484;11.240;2023-04-03T13:06:00;9.60;;;2.27;;
18338;SDS011;9295;44.484;11.240;2023-04-03T13:08:30;5.30;;;2.20;;
18338;SDS011;9295;44.484;11.240;2023-04-03T13:10:59;5.47;;;1.80;;
18338;SDS011;9295;44.484;11.240;2023-04-03T13:13:31;4.83;;;1.90;;
18338;SDS011;9295;44.484;11.240;2023-04-03T13:16:00;5.00;;;2.10;;
18338;SDS011;9295;44.484;11.240;2023-04-03T13:18:37;5.73;;;2.13;;
18338;SDS011;9295;44.484;11.240;2023-04-03T13:21:06;7.23;;;1.97;;
18338;SDS011;9295;44.484;11.240;2023-04-03T13:23:40;4.27;;;1.90;;
18338;SDS011;9295;44.484;11.240;2023-04-03T13:26:12;6.30;;;1.80;;
18338;SDS011;9295;44.484;11.240;2023-04-03T13:28:46;3.70;;;1.60;;
18338;SDS011;9295;44.484;11.240;2023-04-03T13:31:19;5.17;;;1.93;;
18338;SDS011;9295;44.484;11.240;2023-04-03T13:33:54;9.83;;;2.17;;
18338;SDS011;9295;44.484;11.240;2023-04-03T13:36:26;5.90;;;2.33;;
18338;SDS011;9295;44.484;11.240;2023-04-03T13:38:58;17.20;;;3.10;;
18338;SDS011;9295;44.484;11.240;2023-04-03T13:41:29;6.03;;;2.03;;
18338;SDS011;9295;44.484;11.240;2023-04-03T13:46:44;6.13;;;2.07;;
18338;SDS011;9295;44.484;11.240;2023-04-03T13:49:19;6.40;;;2.40;;
18338;SDS011;9295;44.484;11.240;2023-04-03T13:51:49;5.23;;;2.10;;
18338;SDS011;9295;44.484;11.240;2023-04-03T13:54:33;3.70;;;2.27;;
18338;SDS011;9295;44.484;11.240;2023-04-03T13:57:10;5.03;;;2.00;;
18338;SDS011;9295;44.484;11.240;2023-04-03T13:59:42;5.07;;;2.30;;
18338;SDS011;9295;44.484;11.240;2023-04-03T14:02:14;6.50;;;2.10;;
18338;SDS011;9295;44.484;11.240;2023-04-03T14:04:46;9.20;;;2.13;;
18338;SDS011;9295;44.484;11.240;2023-04-03T14:07:17;4.50;;;2.27;;
18338;SDS011;9295;44.484;11.240;2023-04-03T14:09:47;9.37;;;2.23;;
18338;SDS011;9295;44.484;11.240;2023-04-03T14:12:16;9.37;;;2.30;;
18338;SDS011;9295;44.484;11.240;2023-04-03T14:14:58;5.50;;;1.97;;
18338;SDS011;9295;44.484;11.240;2023-04-03T14:17:29;4.90;;;2.20;;
18338;SDS011;9295;44.484;11.240;2023-04-03T14:19:57;4.30;;;2.17;;
18338;SDS011;9295;44.484;11.240;2023-04-03T14:22:28;5.60;;;2.40;;
18338;SDS011;9295;44.484;11.240;2023-04-03T14:24:59;4.90;;;2.00;;
18338;SDS011;9295;44.484;11.240;2023-04-03T14:27:28;6.53;;;2.30;;
18338;SDS011;9295;44.484;11.240;2023-04-03T14:30:02;3.20;;;1.90;;
18338;SDS011;9295;44.484;11.240;2023-04-03T14:32:32;3.70;;;2.20;;
18338;SDS011;9295;44.484;11.240;2023-04-03T14:35:01;12.57;;;2.10;;
18338;SDS011;9295;44.484;11.240;2023-04-03T14:37:30;7.10;;;2.57;;
18338;SDS011;9295;44.484;11.240;2023-04-03T14:40:00;5.90;;;2.07;;
18338;SDS011;9295;44.484;11.240;2023-04-03T14:42:32;5.60;;;2.47;;
18338;SDS011;9295;44.484;11.240;2023-04-03T14:45:04;11.47;;;2.20;;
18338;SDS011;9295;44.484;11.240;2023-04-03T14:47:36;7.20;;;1.90;;
18338;SDS011;9295;44.484;11.240;2023-04-03T14:50:11;10.03;;;2.23;;
18338;SDS011;9295;44.484;11.240;2023-04-03T14:52:43;4.73;;;1.87;;
18338;SDS011;9295;44.484;11.240;2023-04-03T14:55:13;5.90;;;2.00;;
18338;SDS011;9295;44.484;11.240;2023-04-03T14:57:45;5.07;;;2.07;;
18338;SDS011;9295;44.484;11.240;2023-04-03T15:00:16;4.80;;;2.00;;
18338;SDS011;9295;44.484;11.240;2023-04-03T15:02:49;9.90;;;2.13;;
18338;SDS011;9295;44.484;11.240;2023-04-03T15:05:17;4.60;;;1.77;;
18338;SDS011;9295;44.484;11.240;2023-04-03T15:07:47;5.70;;;1.97;;
18338;SDS011;9295;44.484;11.240;2023-04-03T15:10:20;7.30;;;2.10;;
18338;SDS011;9295;44.484;11.240;2023-04-03T15:12:51;5.80;;;1.90;;
18338;SDS011;9295;44.484;11.240;2023-04-03T15:15:22;3.20;;;1.90;;
18338;SDS011;9295;44.484;11.240;2023-04-03T15:17:52;4.47;;;2.70;;
18338;SDS011;9295;44.484;11.240;2023-04-03T15:20:23;3.40;;;1.97;;
18338;SDS011;9295;44.484;11.240;2023-04-03T15:22:53;4.13;;;2.10;;
18338;SDS011;9295;44.484;11.240;2023-04-03T15:25:23;2.47;;;1.83;;
18338;SDS011;9295;44.484;11.240;2023-04-03T15:27:52;6.37;;;2.50;;
18338;SDS011;9295;44.484;11.240;2023-04-03T15:30:22;4.80;;;2.00;;
18338;SDS011;9295;44.484;11.240;2023-04-03T15:32:51;6.07;;;3.10;;
18338;SDS011;9295;44.484;11.240;2023-04-03T15:35:20;6.83;;;2.83;;
18338;SDS011;9295;44.484;11.240;2023-04-03T15:37:48;7.17;;;3.13;;
18338;SDS011;9295;44.484;11.240;2023-04-03T15:40:17;4.33;;;2.00;;
18338;SDS011;9295;44.484;11.240;2023-04-03T15:42:46;6.60;;;2.10;;
18338;SDS011;9295;44.484;11.240;2023-04-03T15:45:16;5.17;;;2.00;;
18338;SDS011;9295;44.484;11.240;2023-04-03T15:47:46;6.50;;;2.37;;
18338;SDS011;9295;44.484;11.240;2023-04-03T15:50:14;4.00;;;2.20;;